createdAt,value
2023-05-21T00:00:31.393Z,21.00
2023-05-21T00:01:34.349Z,23.75
2023-05-21T00:02:37.370Z,22.50
2023-05-21T00:03:43.216Z,22.00
2023-05-21T00:04:46.437Z,23.00
2023-05-21T00:05:51.362Z,21.75
2023-05-21T00:06:54.319Z,22.50
2023-05-21T00:07:57.186Z,22.00
2023-05-21T00:09:00.050Z,21.00
2023-05-21T00:10:02.937Z,23.00
2023-05-21T00:11:05.916Z,22.00
2023-05-21T00:12:09.996Z,21.00
2023-05-21T00:13:12.936Z,19.75
2023-05-21T00:14:15.814Z,22.00
2023-05-21T00:15:18.852Z,23.00
2023-05-21T00:16:21.869Z,22.75
2023-05-21T00:17:24.880Z,20.25
2023-05-21T00:18:27.873Z,22.75
2023-05-21T00:19:30.892Z,23.00
2023-05-21T00:20:34.133Z,22.00
2023-05-21T00:21:37.059Z,23.00
2023-05-21T00:22:40.000Z,21.00
2023-05-21T00:23:43.997Z,23.00
2023-05-21T00:24:47.301Z,22.00
2023-05-21T00:25:51.685Z,22.00
2023-05-21T00:26:54.551Z,21.75
2023-05-21T00:27:57.456Z,22.00
2023-05-21T00:29:00.349Z,22.00
2023-05-21T00:30:03.922Z,22.00
2023-05-21T00:31:07.660Z,20.00
2023-05-21T00:32:10.868Z,23.50
2023-05-21T00:33:15.156Z,23.00
2023-05-21T00:34:18.001Z,24.50
2023-05-21T00:35:20.954Z,20.00
2023-05-21T00:36:25.293Z,20.75
2023-05-21T00:37:31.061Z,21.00
2023-05-21T00:38:34.383Z,21.75
2023-05-21T00:39:38.068Z,22.00
2023-05-21T00:40:42.565Z,22.00
2023-05-21T00:41:47.906Z,22.00
2023-05-21T00:42:51.227Z,21.00
2023-05-21T00:43:54.202Z,22.75
2023-05-21T00:44:57.151Z,24.00
2023-05-21T00:46:00.614Z,22.00
2023-05-21T00:47:04.241Z,20.50
2023-05-21T00:48:07.775Z,21.75
2023-05-21T00:49:11.921Z,22.00
2023-05-21T00:50:16.321Z,21.00
2023-05-21T00:51:19.772Z,20.75
2023-05-21T00:52:23.222Z,21.75
2023-05-21T00:53:26.201Z,19.00
2023-05-21T00:54:29.462Z,22.00
2023-05-21T00:55:32.375Z,24.00
2023-05-21T00:56:35.272Z,22.00
2023-05-21T00:57:38.605Z,22.00
2023-05-21T00:58:42.734Z,24.00
2023-05-21T00:59:45.945Z,23.25
2023-05-21T01:00:49.089Z,25.00
2023-05-21T01:01:57.635Z,22.00
2023-05-21T01:03:00.808Z,21.00
2023-05-21T01:04:04.238Z,22.00
2023-05-21T01:05:08.106Z,24.00
2023-05-21T01:06:12.611Z,22.50
2023-05-21T01:07:15.886Z,23.00
2023-05-21T01:08:19.242Z,24.00
2023-05-21T01:09:22.561Z,22.75
2023-05-21T01:10:26.253Z,22.00
2023-05-21T01:11:50.287Z,24.25
2023-05-21T01:12:54.826Z,22.00
2023-05-21T01:13:58.737Z,20.50
2023-05-21T01:15:05.280Z,23.75
2023-05-21T01:16:10.085Z,22.25
2023-05-21T01:17:14.259Z,21.00
2023-05-21T01:18:17.323Z,20.25
2023-05-21T01:19:25.118Z,22.75
2023-05-21T01:20:29.845Z,22.00
2023-05-21T01:21:37.323Z,21.75
2023-05-21T01:22:44.932Z,20.25
2023-05-21T01:23:47.909Z,20.00
2023-05-21T01:24:52.346Z,23.00
2023-05-21T01:25:55.180Z,22.00
2023-05-21T01:26:59.955Z,22.75
2023-05-21T01:28:02.849Z,22.00
2023-05-21T01:29:14.588Z,23.00
2023-05-21T01:30:19.537Z,21.00
2023-05-21T01:31:29.531Z,21.00
2023-05-21T01:32:38.534Z,21.00
2023-05-21T01:33:48.746Z,21.50
2023-05-21T01:35:03.775Z,22.50
2023-05-21T01:36:29.333Z,21.50
2023-05-21T01:37:40.051Z,22.00
2023-05-21T01:38:47.534Z,22.75
2023-05-21T01:40:28.860Z,22.50
2023-05-21T01:41:38.171Z,22.00
2023-05-21T01:42:45.570Z,21.25
2023-05-21T01:43:48.995Z,21.00
2023-05-21T01:44:57.484Z,20.75
2023-05-21T01:46:01.568Z,23.50
2023-05-21T01:47:06.212Z,24.00
2023-05-21T01:48:10.701Z,21.00
2023-05-21T01:49:14.749Z,20.50
2023-05-21T01:50:20.014Z,20.50
2023-05-21T01:51:23.086Z,21.25
2023-05-21T01:52:25.994Z,22.50
2023-05-21T01:53:29.170Z,22.50
2023-05-21T01:54:32.045Z,23.00
2023-05-21T01:55:35.170Z,23.25
2023-05-21T01:56:38.418Z,23.00
2023-05-21T01:57:41.288Z,21.75
2023-05-21T01:58:45.303Z,22.25
2023-05-21T01:59:49.133Z,23.00
2023-05-21T02:00:54.749Z,22.50
2023-05-21T02:01:57.697Z,21.50
2023-05-21T02:03:00.968Z,20.50
2023-05-21T02:04:04.107Z,20.00
2023-05-21T02:05:07.800Z,22.25
2023-05-21T02:06:10.791Z,20.50
2023-05-21T02:07:15.768Z,21.50
2023-05-21T02:08:20.984Z,22.50
2023-05-21T02:09:23.996Z,20.50
2023-05-21T02:10:27.231Z,23.25
2023-05-21T02:11:30.117Z,23.00
2023-05-21T02:12:33.135Z,21.50
2023-05-21T02:13:35.986Z,21.50
2023-05-21T02:14:40.446Z,20.50
2023-05-21T02:15:43.601Z,21.50
2023-05-21T02:16:46.528Z,21.25
2023-05-21T02:17:52.509Z,19.25
2023-05-21T02:18:58.581Z,20.50
2023-05-21T02:20:14.888Z,20.50
2023-05-21T02:21:17.873Z,20.00
2023-05-21T02:22:20.731Z,21.00
2023-05-21T02:23:23.630Z,21.00
2023-05-21T02:24:26.480Z,21.00
2023-05-21T02:25:29.380Z,21.50
2023-05-21T02:26:32.558Z,20.25
2023-05-21T02:27:36.535Z,21.00
2023-05-21T02:28:39.896Z,20.00
2023-05-21T02:29:42.817Z,22.00
2023-05-21T02:30:45.713Z,21.50
2023-05-21T02:31:48.954Z,20.25
2023-05-21T02:32:52.144Z,21.50
2023-05-21T02:33:55.032Z,20.75
2023-05-21T02:34:58.066Z,21.00
2023-05-21T02:36:00.919Z,19.00
2023-05-21T02:37:03.793Z,20.50
2023-05-21T02:38:06.747Z,21.50
2023-05-21T02:39:09.702Z,20.25
2023-05-21T02:40:13.325Z,23.00
2023-05-21T02:41:16.238Z,22.00
2023-05-21T02:42:19.156Z,22.00
2023-05-21T02:43:22.078Z,22.50
2023-05-21T02:44:25.386Z,20.25
2023-05-21T02:45:28.231Z,21.00
2023-05-21T02:46:31.123Z,21.50
2023-05-21T02:47:34.067Z,20.75
2023-05-21T02:48:37.077Z,20.50
2023-05-21T02:49:39.930Z,18.00
2023-05-21T02:50:42.760Z,20.00
2023-05-21T02:51:45.690Z,22.50
2023-05-21T02:52:48.520Z,20.50
2023-05-21T02:53:51.348Z,20.00
2023-05-21T02:54:54.262Z,20.00
2023-05-21T02:55:57.732Z,20.50
2023-05-21T02:57:00.606Z,19.00
2023-05-21T02:58:03.478Z,19.00
2023-05-21T02:59:06.321Z,20.50
2023-05-21T03:00:11.170Z,20.75
2023-05-21T03:01:14.045Z,22.00
2023-05-21T03:02:17.600Z,21.00
2023-05-21T03:03:20.840Z,20.50
2023-05-21T03:04:23.902Z,19.50
2023-05-21T03:05:27.103Z,19.00
2023-05-21T03:06:29.946Z,19.50
2023-05-21T03:07:32.954Z,20.75
2023-05-21T03:08:35.785Z,18.50
2023-05-21T03:09:38.651Z,19.50
2023-05-21T03:10:41.569Z,20.00
2023-05-21T03:11:44.597Z,20.00
2023-05-21T03:12:48.439Z,20.25
2023-05-21T03:13:51.283Z,21.00
2023-05-21T03:14:54.543Z,21.50
2023-05-21T03:15:57.801Z,19.50
2023-05-21T03:17:00.820Z,20.00
2023-05-21T03:18:04.339Z,19.75
2023-05-21T03:19:07.216Z,18.75
2023-05-21T03:20:17.283Z,18.25
2023-05-21T03:21:23.944Z,18.50
2023-05-21T03:22:26.784Z,18.50
2023-05-21T03:23:29.677Z,18.50
2023-05-21T03:24:32.988Z,19.50
2023-05-21T03:25:36.110Z,18.50
2023-05-21T03:26:39.121Z,18.50
2023-05-21T03:27:42.359Z,20.00
2023-05-21T03:28:45.218Z,21.75
2023-05-21T03:29:48.107Z,19.50
2023-05-21T03:30:52.271Z,18.50
2023-05-21T03:31:55.992Z,20.00
2023-05-21T03:32:59.108Z,19.50
2023-05-21T03:34:02.176Z,18.50
2023-05-21T03:35:06.398Z,19.50
2023-05-21T03:36:09.272Z,20.00
2023-05-21T03:37:12.508Z,19.50
2023-05-21T03:38:15.373Z,19.00
2023-05-21T03:39:18.290Z,19.00
2023-05-21T03:40:21.178Z,19.50
2023-05-21T03:41:24.369Z,19.50
2023-05-21T03:42:27.437Z,20.00
2023-05-21T03:43:30.861Z,19.00
2023-05-21T03:44:34.147Z,17.00
2023-05-21T03:45:37.441Z,18.00
2023-05-21T03:46:40.712Z,17.50
2023-05-21T03:47:44.310Z,19.00
2023-05-21T03:48:47.251Z,19.50
2023-05-21T03:49:50.086Z,18.00
2023-05-21T03:50:53.023Z,18.25
2023-05-21T03:51:55.917Z,19.00
2023-05-21T03:52:58.956Z,17.75
2023-05-21T03:54:02.611Z,17.50
2023-05-21T03:55:05.749Z,18.50
2023-05-21T03:56:08.866Z,19.50
2023-05-21T03:57:11.816Z,19.00
2023-05-21T03:58:14.671Z,20.00
2023-05-21T03:59:17.531Z,17.50
2023-05-21T04:00:20.454Z,18.00
2023-05-21T04:01:23.363Z,18.50
2023-05-21T04:02:29.119Z,18.50
2023-05-21T04:03:34.455Z,19.50
2023-05-21T04:04:38.385Z,19.25
2023-05-21T04:05:41.330Z,19.00
2023-05-21T04:06:45.830Z,18.00
2023-05-21T04:07:48.727Z,18.50
2023-05-21T04:08:51.882Z,18.50
2023-05-21T04:09:54.887Z,18.50
2023-05-21T04:10:59.119Z,18.50
2023-05-21T04:12:02.005Z,18.00
2023-05-21T04:13:04.885Z,17.75
2023-05-21T04:14:07.794Z,20.00
2023-05-21T04:15:11.007Z,19.00
2023-05-21T04:16:15.920Z,19.50
2023-05-21T04:17:20.446Z,18.00
2023-05-21T04:18:25.231Z,19.50
2023-05-21T04:19:28.088Z,19.50
2023-05-21T04:20:30.968Z,19.50
2023-05-21T04:21:33.864Z,20.00
2023-05-21T04:22:36.992Z,18.00
2023-05-21T04:23:39.936Z,19.00
2023-05-21T04:24:42.800Z,18.00
2023-05-21T04:25:45.692Z,16.00
2023-05-21T04:26:49.391Z,17.00
2023-05-21T04:27:52.228Z,17.00
2023-05-21T04:28:55.743Z,19.00
2023-05-21T04:29:59.346Z,18.00
2023-05-21T04:31:02.768Z,18.00
2023-05-21T04:32:06.381Z,18.00
2023-05-21T04:33:11.176Z,19.75
2023-05-21T04:34:14.041Z,17.00
2023-05-21T04:35:17.012Z,19.00
2023-05-21T04:36:19.846Z,20.50
2023-05-21T04:37:25.831Z,19.00
2023-05-21T04:38:28.772Z,18.00
2023-05-21T04:39:32.791Z,17.25
2023-05-21T04:40:36.771Z,17.00
2023-05-21T04:41:40.864Z,18.00
2023-05-21T04:42:43.780Z,18.00
2023-05-21T04:43:46.659Z,17.00
2023-05-21T04:44:50.055Z,18.00
2023-05-21T04:45:56.413Z,19.50
2023-05-21T04:47:00.121Z,21.00
2023-05-21T04:48:04.200Z,20.00
2023-05-21T04:49:07.043Z,19.00
2023-05-21T04:50:10.410Z,19.00
2023-05-21T04:51:13.286Z,19.25
2023-05-21T04:52:16.520Z,18.75
2023-05-21T04:53:19.436Z,19.25
2023-05-21T04:54:22.302Z,17.00
2023-05-21T04:55:25.150Z,16.00
2023-05-21T04:56:28.327Z,16.50
2023-05-21T04:57:31.306Z,17.75
2023-05-21T04:58:35.580Z,18.00
2023-05-21T04:59:38.441Z,18.00
2023-05-21T05:00:43.473Z,16.00
2023-05-21T05:01:46.514Z,17.00
2023-05-21T05:02:49.495Z,17.00
2023-05-21T05:03:52.820Z,16.50
2023-05-21T05:04:55.757Z,19.75
2023-05-21T05:05:58.643Z,18.25
2023-05-21T05:07:01.845Z,19.50
2023-05-21T05:08:05.638Z,19.00
2023-05-21T05:09:08.549Z,18.50
2023-05-21T05:10:11.667Z,17.50
2023-05-21T05:11:15.370Z,18.00
2023-05-21T05:12:18.665Z,19.00
2023-05-21T05:13:21.586Z,17.00
2023-05-21T05:14:24.524Z,16.00
2023-05-21T05:15:27.848Z,16.75
2023-05-21T05:16:30.865Z,20.00
2023-05-21T05:17:33.867Z,17.00
2023-05-21T05:18:37.808Z,20.00
2023-05-21T05:19:41.245Z,18.00
2023-05-21T05:20:44.128Z,19.75
2023-05-21T05:21:47.420Z,19.50
2023-05-21T05:22:50.298Z,21.00
2023-05-21T05:23:53.384Z,18.00
2023-05-21T05:24:56.390Z,16.00
2023-05-21T05:25:59.231Z,16.00
2023-05-21T05:27:02.387Z,18.00
2023-05-21T05:28:05.694Z,17.25
2023-05-21T05:29:08.843Z,18.00
2023-05-21T05:30:12.519Z,18.25
2023-05-21T05:31:15.422Z,17.75
2023-05-21T05:32:18.460Z,18.00
2023-05-21T05:33:21.329Z,17.00
2023-05-21T05:34:24.190Z,17.00
2023-05-21T05:35:27.103Z,17.50
2023-05-21T05:36:29.925Z,18.00
2023-05-21T05:37:34.121Z,19.75
2023-05-21T05:38:37.678Z,19.00
2023-05-21T05:39:40.624Z,18.00
2023-05-21T05:40:43.494Z,17.25
2023-05-21T05:41:46.372Z,18.00
2023-05-21T05:42:50.708Z,18.00
2023-05-21T05:43:53.666Z,17.00
2023-05-21T05:44:57.191Z,17.25
2023-05-21T05:46:00.251Z,19.00
2023-05-21T05:47:03.238Z,17.00
2023-05-21T05:48:06.332Z,20.50
2023-05-21T05:49:09.361Z,18.00
2023-05-21T05:50:12.528Z,17.50
2023-05-21T05:51:16.645Z,18.00
2023-05-21T05:52:19.512Z,18.00
2023-05-21T05:53:22.394Z,16.00
2023-05-21T05:54:25.364Z,16.25
2023-05-21T05:55:28.207Z,15.25
2023-05-21T05:56:31.065Z,13.00
2023-05-21T05:57:33.987Z,17.00
2023-05-21T05:58:36.907Z,16.00
2023-05-21T05:59:39.944Z,17.00
2023-05-21T06:00:42.828Z,16.50
2023-05-21T06:01:45.691Z,18.00
2023-05-21T06:02:49.499Z,17.75
2023-05-21T06:03:52.526Z,17.50
2023-05-21T06:04:55.440Z,14.00
2023-05-21T06:05:58.365Z,16.00
2023-05-21T06:07:01.795Z,14.50
2023-05-21T06:08:04.725Z,15.00
2023-05-21T06:09:07.861Z,15.50
2023-05-21T06:10:11.381Z,15.75
2023-05-21T06:11:14.372Z,18.00
2023-05-21T06:12:17.348Z,16.00
2023-05-21T06:13:20.666Z,17.00
2023-05-21T06:14:23.745Z,18.00
2023-05-21T06:15:27.212Z,17.00
2023-05-21T06:16:32.768Z,18.75
2023-05-21T06:17:35.880Z,18.00
2023-05-21T06:18:39.318Z,19.00
2023-05-21T06:19:42.249Z,17.75
2023-05-21T06:20:45.173Z,17.00
2023-05-21T06:21:48.336Z,15.00
2023-05-21T06:22:51.286Z,17.00
2023-05-21T06:23:54.170Z,16.00
2023-05-21T06:24:57.426Z,16.00
2023-05-21T06:26:00.342Z,18.00
2023-05-21T06:27:03.384Z,16.00
2023-05-21T06:28:06.257Z,15.00
2023-05-21T06:29:09.516Z,15.00
2023-05-21T06:30:12.635Z,15.50
2023-05-21T06:31:15.493Z,17.00
2023-05-21T06:32:18.507Z,17.00
2023-05-21T06:33:21.514Z,17.00
2023-05-21T06:34:24.444Z,16.00
2023-05-21T06:35:27.426Z,16.00
2023-05-21T06:36:31.265Z,16.50
2023-05-21T06:37:34.088Z,17.25
2023-05-21T06:38:36.937Z,17.00
2023-05-21T06:39:39.796Z,15.00
2023-05-21T06:40:42.650Z,16.00
2023-05-21T06:41:45.551Z,18.25
2023-05-21T06:42:48.395Z,17.00
2023-05-21T06:43:51.329Z,16.00
2023-05-21T06:44:54.163Z,16.00
2023-05-21T06:45:57.071Z,15.75
2023-05-21T06:46:59.962Z,16.00
2023-05-21T06:48:02.848Z,15.00
2023-05-21T06:49:08.480Z,15.50
2023-05-21T06:50:11.699Z,16.00
2023-05-21T06:51:14.878Z,16.00
2023-05-21T06:52:17.999Z,15.50
2023-05-21T06:53:20.882Z,14.00
2023-05-21T06:54:26.131Z,16.00
2023-05-21T06:55:29.740Z,15.00
2023-05-21T06:56:32.839Z,14.00
2023-05-21T06:57:35.769Z,16.00
2023-05-21T06:58:38.624Z,15.50
2023-05-21T06:59:41.489Z,15.00
2023-05-21T07:00:44.354Z,15.25
2023-05-21T07:01:47.272Z,14.25
2023-05-21T07:02:50.391Z,17.00
2023-05-21T07:03:53.608Z,16.00
2023-05-21T07:04:57.011Z,15.00
2023-05-21T07:05:59.876Z,15.00
2023-05-21T07:07:05.740Z,14.00
2023-05-21T07:08:10.621Z,17.00
2023-05-21T07:09:14.725Z,16.00
2023-05-21T07:10:17.734Z,16.50
2023-05-21T07:11:20.620Z,17.75
2023-05-21T07:12:23.446Z,18.00
2023-05-21T07:13:26.364Z,15.75
2023-05-21T07:14:29.296Z,18.00
2023-05-21T07:15:32.145Z,17.00
2023-05-21T07:16:35.037Z,15.00
2023-05-21T07:17:38.746Z,17.00
2023-05-21T07:18:41.790Z,17.00
2023-05-21T07:19:44.670Z,17.00
2023-05-21T07:20:47.602Z,15.00
2023-05-21T07:21:51.031Z,16.75
2023-05-21T07:22:53.959Z,16.00
2023-05-21T07:23:56.840Z,17.00
2023-05-21T07:24:59.770Z,17.00
2023-05-21T07:26:02.709Z,18.00
2023-05-21T07:27:17.852Z,17.25
2023-05-21T07:28:28.033Z,16.00
2023-05-21T07:29:30.897Z,16.00
2023-05-21T07:30:33.763Z,18.00
2023-05-21T07:31:36.774Z,17.50
2023-05-21T07:32:39.768Z,17.00
2023-05-21T07:33:42.750Z,17.00
2023-05-21T07:34:45.619Z,16.75
2023-05-21T07:35:48.494Z,17.00
2023-05-21T07:36:51.377Z,16.00
2023-05-21T07:37:54.361Z,16.25
2023-05-21T07:38:57.908Z,16.50
2023-05-21T07:40:01.004Z,17.00
2023-05-21T07:41:03.963Z,17.00
2023-05-21T07:42:07.207Z,18.00
2023-05-21T07:43:10.069Z,17.00
2023-05-21T07:44:12.972Z,16.75
2023-05-21T07:45:15.878Z,19.75
2023-05-21T07:46:18.897Z,19.00
2023-05-21T07:47:22.003Z,17.25
2023-05-21T07:48:24.932Z,16.00
2023-05-21T07:49:27.749Z,15.00
2023-05-21T07:50:30.598Z,16.00
2023-05-21T07:51:34.673Z,18.75
2023-05-21T07:52:37.642Z,17.50
2023-05-21T07:53:41.919Z,14.00
2023-05-21T07:54:44.813Z,13.00
2023-05-21T07:55:51.469Z,11.50
2023-05-21T07:56:54.332Z,15.75
2023-05-21T07:57:57.632Z,12.00
2023-05-21T07:59:00.487Z,14.00
2023-05-21T08:00:03.493Z,15.50
2023-05-21T08:01:06.371Z,14.00
2023-05-21T08:02:09.448Z,14.25
2023-05-21T08:03:13.291Z,14.50
2023-05-21T08:04:16.293Z,15.00
2023-05-21T08:05:19.371Z,14.00
2023-05-21T08:06:23.524Z,16.50
2023-05-21T08:07:26.387Z,15.00
2023-05-21T08:08:29.371Z,16.50
2023-05-21T08:09:33.496Z,18.00
2023-05-21T08:10:36.419Z,15.25
2023-05-21T08:11:39.435Z,14.50
2023-05-21T08:12:42.544Z,15.00
2023-05-21T08:13:45.443Z,12.50
2023-05-21T08:14:48.318Z,14.50
2023-05-21T08:15:53.108Z,16.00
2023-05-21T08:16:56.608Z,14.00
2023-05-21T08:17:59.619Z,15.75
2023-05-21T08:19:02.688Z,16.00
2023-05-21T08:20:06.141Z,16.00
2023-05-21T08:21:09.102Z,17.00
2023-05-21T08:22:12.187Z,17.00
2023-05-21T08:23:15.076Z,17.00
2023-05-21T08:24:18.245Z,17.00
2023-05-21T08:25:21.346Z,17.25
2023-05-21T08:26:24.275Z,16.00
2023-05-21T08:27:27.170Z,16.00
2023-05-21T08:28:31.667Z,19.00
2023-05-21T08:29:35.055Z,17.00
2023-05-21T08:30:37.999Z,17.00
2023-05-21T08:31:41.981Z,17.00
2023-05-21T08:32:45.115Z,17.00
2023-05-21T08:33:55.148Z,19.00
2023-05-21T08:34:58.905Z,17.75
2023-05-21T08:36:01.796Z,17.00
2023-05-21T08:37:04.718Z,17.00
2023-05-21T08:38:07.598Z,17.00
2023-05-21T08:39:10.595Z,16.25
2023-05-21T08:40:14.575Z,17.00
2023-05-21T08:41:18.882Z,17.00
2023-05-21T08:42:37.126Z,18.00
2023-05-21T08:43:40.923Z,17.00
2023-05-21T08:44:47.844Z,16.25
2023-05-21T08:45:56.353Z,17.00
2023-05-21T08:47:00.985Z,17.00
2023-05-21T08:48:04.618Z,17.00
2023-05-21T08:49:13.941Z,17.25
2023-05-21T08:50:22.136Z,16.00
2023-05-21T08:51:25.077Z,17.00
2023-05-21T08:52:28.170Z,17.00
2023-05-21T08:53:31.173Z,17.50
2023-05-21T08:54:34.660Z,18.00
2023-05-21T08:55:40.192Z,16.75
2023-05-21T08:56:48.298Z,16.75
2023-05-21T08:57:51.950Z,17.75
2023-05-21T08:58:55.182Z,19.00
2023-05-21T08:59:58.057Z,18.00
2023-05-21T09:01:01.261Z,17.50
2023-05-21T09:02:05.993Z,18.00
2023-05-21T09:03:11.658Z,16.00
2023-05-21T09:04:21.314Z,17.00
2023-05-21T09:05:25.418Z,16.50
2023-05-21T09:06:28.627Z,17.00
2023-05-21T09:07:33.036Z,17.00
2023-05-21T09:08:44.790Z,17.25
2023-05-21T09:09:54.030Z,19.00
2023-05-21T09:10:56.925Z,19.00
2023-05-21T09:11:59.813Z,19.00
2023-05-21T09:13:02.866Z,17.00
2023-05-21T09:14:07.050Z,17.00
2023-05-21T09:15:10.454Z,19.00
2023-05-21T09:16:13.558Z,19.00
2023-05-21T09:17:16.729Z,17.00
2023-05-21T09:18:19.595Z,17.00
2023-05-21T09:19:23.475Z,15.00
2023-05-21T09:20:28.275Z,15.00
2023-05-21T09:21:32.956Z,15.00
2023-05-21T09:22:35.942Z,17.00
2023-05-21T09:23:38.798Z,19.00
2023-05-21T09:24:41.700Z,17.00
2023-05-21T09:25:49.496Z,18.00
2023-05-21T09:26:52.734Z,17.00
2023-05-21T09:27:57.797Z,14.75
2023-05-21T09:29:02.013Z,18.00
2023-05-21T09:30:06.163Z,18.50
2023-05-21T09:31:09.104Z,17.00
2023-05-21T09:32:13.540Z,18.00
2023-05-21T09:33:27.382Z,19.00
2023-05-21T09:34:30.329Z,17.00
2023-05-21T09:35:36.080Z,18.00
2023-05-21T09:36:39.825Z,18.00
2023-05-21T09:37:46.575Z,17.00
2023-05-21T09:38:50.918Z,16.50
2023-05-21T09:39:54.032Z,18.00
2023-05-21T09:40:58.219Z,18.00
2023-05-21T09:42:01.204Z,19.00
2023-05-21T09:43:04.119Z,18.00
2023-05-21T09:44:07.134Z,17.50
2023-05-21T09:45:13.576Z,17.00
2023-05-21T09:46:16.542Z,15.50
2023-05-21T09:47:21.705Z,16.00
2023-05-21T09:48:44.225Z,15.00
2023-05-21T09:49:47.387Z,16.00
2023-05-21T09:50:50.222Z,17.00
2023-05-21T09:51:59.566Z,17.00
2023-05-21T09:53:02.513Z,16.00
2023-05-21T09:54:05.410Z,19.25
2023-05-21T09:55:11.561Z,19.75
2023-05-21T09:56:14.499Z,19.00
2023-05-21T09:57:17.419Z,16.75
2023-05-21T09:58:20.420Z,17.00
2023-05-21T09:59:23.661Z,15.00
2023-05-21T10:00:29.224Z,18.50
2023-05-21T10:01:34.203Z,18.50
2023-05-21T10:02:39.250Z,18.00
2023-05-21T10:03:44.134Z,18.00
2023-05-21T10:04:51.352Z,17.00
2023-05-21T10:05:56.427Z,16.00
2023-05-21T10:07:01.165Z,16.00
2023-05-21T10:08:06.066Z,17.00
2023-05-21T10:09:11.823Z,17.00
2023-05-21T10:10:18.286Z,18.00
2023-05-21T10:11:25.224Z,18.25
2023-05-21T10:12:31.711Z,16.25
2023-05-21T10:13:40.656Z,18.00
2023-05-21T10:14:46.435Z,18.00
2023-05-21T10:16:00.692Z,17.00
2023-05-21T10:17:05.010Z,17.00
2023-05-21T10:18:09.757Z,16.00
2023-05-21T10:19:14.452Z,14.25
2023-05-21T10:20:18.707Z,16.00
2023-05-21T10:21:24.017Z,16.00
2023-05-21T10:22:27.347Z,17.00
2023-05-21T10:23:31.537Z,17.50
2023-05-21T10:24:36.020Z,18.25
2023-05-21T10:25:38.986Z,17.00
2023-05-21T10:26:42.666Z,17.00
2023-05-21T10:27:46.265Z,17.50
2023-05-21T10:28:51.990Z,17.00
2023-05-21T10:29:56.528Z,16.00
2023-05-21T10:30:59.927Z,17.00
2023-05-21T10:32:05.251Z,15.75
2023-05-21T10:33:09.264Z,16.00
2023-05-21T10:34:13.433Z,16.25
2023-05-21T10:35:18.610Z,16.00
2023-05-21T10:36:21.936Z,15.00
2023-05-21T10:37:27.931Z,15.00
2023-05-21T10:38:33.316Z,15.00
2023-05-21T10:39:37.208Z,14.00
2023-05-21T10:40:40.166Z,16.00
2023-05-21T10:42:06.920Z,17.00
2023-05-21T10:43:37.754Z,16.00
2023-05-21T10:45:14.205Z,16.00
2023-05-21T10:46:54.609Z,16.00
2023-05-21T10:48:00.462Z,14.00
2023-05-21T10:49:23.973Z,14.50
2023-05-21T10:50:53.261Z,14.00
2023-05-21T10:52:10.376Z,15.00
2023-05-21T10:53:38.396Z,16.00
2023-05-21T10:54:51.164Z,15.50
2023-05-21T10:56:24.472Z,14.00
2023-05-21T10:57:47.536Z,15.00
2023-05-21T10:59:02.166Z,17.00
2023-05-21T11:00:07.451Z,15.00
2023-05-21T11:01:12.144Z,19.00
2023-05-21T11:02:16.943Z,16.00
2023-05-21T11:03:21.428Z,17.50
2023-05-21T11:04:30.760Z,15.00
2023-05-21T11:05:43.569Z,17.50
2023-05-21T11:06:51.823Z,17.00
2023-05-21T11:07:58.405Z,16.00
2023-05-21T11:09:13.909Z,15.00
2023-05-21T11:10:37.040Z,14.00
2023-05-21T11:11:51.165Z,14.00
2023-05-21T11:13:12.004Z,13.00
2023-05-21T11:14:44.423Z,13.00
2023-05-21T11:15:59.343Z,14.00
2023-05-21T11:17:08.150Z,14.00
2023-05-21T11:18:11.052Z,15.00
2023-05-21T11:19:21.134Z,17.00
2023-05-21T11:20:24.188Z,14.25
2023-05-21T11:21:31.817Z,17.75
2023-05-21T11:22:37.378Z,14.00
2023-05-21T11:23:52.501Z,15.00
2023-05-21T11:24:56.987Z,14.00
2023-05-21T11:26:03.578Z,13.25
2023-05-21T11:27:08.052Z,15.50
2023-05-21T11:28:10.946Z,15.00
2023-05-21T11:29:13.850Z,15.75
2023-05-21T11:30:20.301Z,18.00
2023-05-21T11:31:29.346Z,14.75
2023-05-21T11:32:32.824Z,15.00
2023-05-21T11:33:35.838Z,14.00
2023-05-21T11:34:42.998Z,15.25
2023-05-21T11:35:55.602Z,13.75
2023-05-21T11:37:21.979Z,13.00
2023-05-21T11:38:24.911Z,14.50
2023-05-21T11:39:27.818Z,17.50
2023-05-21T11:40:32.249Z,17.00
2023-05-21T11:42:03.800Z,17.25
2023-05-21T11:43:07.418Z,17.00
2023-05-21T11:44:11.244Z,16.50
2023-05-21T11:45:20.243Z,17.00
2023-05-21T11:46:23.312Z,15.00
2023-05-21T11:47:27.682Z,16.00
2023-05-21T11:48:33.424Z,17.00
2023-05-21T11:49:37.530Z,16.00
2023-05-21T11:50:43.622Z,13.00
2023-05-21T11:51:46.546Z,17.50
2023-05-21T11:52:51.139Z,18.00
2023-05-21T11:53:54.291Z,18.00
2023-05-21T11:54:58.564Z,14.00
2023-05-21T11:56:03.917Z,13.00
2023-05-21T11:57:10.524Z,13.75
2023-05-21T11:58:20.418Z,13.00
2023-05-21T11:59:23.329Z,13.50
2023-05-21T12:00:26.225Z,14.50
2023-05-21T12:01:29.083Z,13.00
2023-05-21T12:02:35.000Z,13.00
2023-05-21T12:03:38.075Z,17.00
2023-05-21T12:04:43.851Z,16.50
2023-05-21T12:05:50.368Z,15.50
2023-05-21T12:06:53.261Z,15.00
2023-05-21T12:07:56.927Z,13.50
2023-05-21T12:09:00.310Z,14.00
2023-05-21T12:10:03.261Z,14.50
2023-05-21T12:11:06.242Z,14.75
2023-05-21T12:12:14.861Z,15.75
2023-05-21T12:13:17.812Z,17.75
2023-05-21T12:14:20.773Z,17.00
2023-05-21T12:15:24.914Z,16.50
2023-05-21T12:16:28.250Z,17.00
2023-05-21T12:17:32.956Z,15.00
2023-05-21T12:18:38.043Z,16.50
2023-05-21T12:19:42.225Z,18.00
2023-05-21T12:20:46.076Z,14.00
2023-05-21T12:21:49.674Z,14.00
2023-05-21T12:22:52.690Z,16.75
2023-05-21T12:23:55.575Z,20.00
2023-05-21T12:24:59.572Z,18.00
2023-05-21T12:26:02.544Z,18.00
2023-05-21T12:27:11.576Z,16.00
2023-05-21T12:28:14.491Z,17.00
2023-05-21T12:29:17.460Z,18.00
2023-05-21T12:30:21.237Z,18.00
2023-05-21T12:31:24.840Z,17.00
2023-05-21T12:32:28.894Z,16.00
2023-05-21T12:33:37.775Z,18.00
2023-05-21T12:34:46.086Z,18.50
2023-05-21T12:35:51.539Z,20.00
2023-05-21T12:36:54.544Z,16.00
2023-05-21T12:37:57.955Z,15.00
2023-05-21T12:39:00.964Z,16.50
2023-05-21T12:40:12.990Z,17.50
2023-05-21T12:41:16.157Z,17.00
2023-05-21T12:42:29.500Z,17.00
2023-05-21T12:43:33.965Z,18.00
2023-05-21T12:44:37.102Z,18.00
2023-05-21T12:45:41.141Z,16.00
2023-05-21T12:46:44.287Z,16.00
2023-05-21T12:47:50.424Z,16.00
2023-05-21T12:48:57.244Z,16.50
2023-05-21T12:50:03.455Z,16.00
2023-05-21T12:51:06.310Z,17.25
2023-05-21T12:52:16.299Z,18.00
2023-05-21T12:53:19.219Z,17.00
2023-05-21T12:54:22.073Z,18.00
2023-05-21T12:55:29.264Z,17.25
2023-05-21T12:56:45.577Z,17.00
2023-05-21T12:57:48.496Z,16.00
2023-05-21T12:58:51.942Z,19.00
2023-05-21T12:59:59.628Z,18.00
2023-05-21T13:01:04.634Z,17.00
2023-05-21T13:02:08.371Z,16.75
2023-05-21T13:03:11.253Z,14.00
2023-05-21T13:04:14.264Z,15.00
2023-05-21T13:05:19.368Z,16.00
2023-05-21T13:06:22.588Z,16.50
2023-05-21T13:07:26.595Z,16.00
2023-05-21T13:08:30.493Z,17.00
2023-05-21T13:09:33.399Z,16.00
2023-05-21T13:10:36.447Z,16.75
2023-05-21T13:11:39.483Z,16.00
2023-05-21T13:12:44.317Z,17.00
2023-05-21T13:13:47.663Z,19.00
2023-05-21T13:14:55.065Z,17.00
2023-05-21T13:15:58.096Z,16.00
2023-05-21T13:17:01.186Z,16.00
2023-05-21T13:18:04.134Z,17.00
2023-05-21T13:19:07.154Z,14.00
2023-05-21T13:20:18.054Z,14.75
2023-05-21T13:21:21.072Z,16.00
2023-05-21T13:22:23.911Z,17.75
2023-05-21T13:23:27.038Z,16.00
2023-05-21T13:24:29.914Z,18.50
2023-05-21T13:25:34.108Z,18.00
2023-05-21T13:26:37.170Z,16.00
2023-05-21T13:27:40.809Z,17.00
2023-05-21T13:28:43.794Z,18.00
2023-05-21T13:29:46.781Z,16.00
2023-05-21T13:30:49.713Z,17.00
2023-05-21T13:31:52.617Z,16.00
2023-05-21T13:32:56.209Z,16.00
2023-05-21T13:33:59.168Z,16.25
2023-05-21T13:35:02.148Z,17.25
2023-05-21T13:36:05.188Z,16.00
2023-05-21T13:37:08.140Z,16.25
2023-05-21T13:38:11.052Z,16.00
2023-05-21T13:39:14.193Z,18.25
2023-05-21T13:40:17.982Z,18.00
2023-05-21T13:41:20.863Z,17.00
2023-05-21T13:42:24.437Z,17.00
2023-05-21T13:43:27.393Z,16.00
2023-05-21T13:44:30.266Z,15.25
2023-05-21T13:45:33.304Z,17.25
2023-05-21T13:46:40.631Z,18.75
2023-05-21T13:47:44.553Z,20.00
2023-05-21T13:48:47.514Z,18.75
2023-05-21T13:49:50.653Z,19.00
2023-05-21T13:50:53.822Z,17.50
2023-05-21T13:51:56.708Z,16.00
2023-05-21T13:52:59.673Z,16.00